Time;durP1;ratioP1;P1;durP2;ratioP2;P2;SDS_P1;SDS_P2;PMS_P1;PMS_P2;Temp;Humidity;BMP_temperature;BMP_pressure;BME280_temperature;BME280_humidity;BME280_pressure;Samples;Min_cycle;Max_cycle;Signal;HPM_P1;HPM_P2
2022/04/29 00:00:18;;;;;;;16.83;10.32;;;;;;;10.26;95.67;93619.66;5031709;28;20041;-82
2022/04/29 00:02:46;;;;;;;13.32;9.70;;;;;;;10.45;94.92;93625.81;5031735;28;20515;-82
2022/04/29 00:05:14;;;;;;;13.75;9.65;;;;;;;10.21;94.07;93581.72;5031524;28;20404;-82
2022/04/29 00:07:41;;;;;;;12.55;9.13;;;;;;;10.45;94.26;93627.59;5031703;28;20498;-83
2022/04/29 00:10:12;;;;;;;11.98;8.55;;;;;;;10.41;94.19;93617.69;5031331;28;20045;-83
2022/04/29 00:12:38;;;;;;;12.25;8.90;;;;;;;10.36;94.52;93620.03;5011807;28;20069;-83
2022/04/29 00:15:07;;;;;;;12.93;9.43;;;;;;;10.28;94.69;93605.63;5011764;28;20046;-83
2022/04/29 00:17:35;;;;;;;13.35;9.57;;;;;;;10.22;94.83;93603.84;5011491;28;20042;-84
2022/04/29 00:20:03;;;;;;;12.73;9.27;;;;;;;9.67;97.26;93588.59;5011501;28;20060;-84
2022/04/29 00:22:29;;;;;;;11.55;8.07;;;;;;;8.92;99.55;93523.47;5011890;28;20059;-83
2022/04/29 00:24:56;;;;;;;11.10;8.65;;;;;;;9.22;100.00;93600.09;5011364;28;20042;-84
2022/04/29 00:27:23;;;;;;;13.38;9.65;;;;;;;8.75;100.00;93557.09;5011281;28;20063;-83
2022/04/29 00:29:50;;;;;;;13.63;10.00;;;;;;;8.98;100.00;93596.25;5011481;28;20396;-83
2022/04/29 00:32:17;;;;;;;11.07;8.43;;;;;;;8.91;100.00;93607.25;5011183;28;20074;-84
2022/04/29 00:34:46;;;;;;;12.05;9.70;;;;;;;8.76;100.00;93565.59;5011210;28;20038;-84
2022/04/29 00:37:13;;;;;;;11.55;8.45;;;;;;;9.07;100.00;93607.91;5011238;28;20397;-83
2022/04/29 00:39:39;;;;;;;12.52;9.80;;;;;;;9.03;100.00;93601.59;5011209;28;20046;-84
2022/04/29 00:42:11;;;;;;;12.82;8.70;;;;;;;9.01;100.00;93598.41;5011434;28;20048;-83
2022/04/29 00:44:39;;;;;;;13.10;9.55;;;;;;;8.71;100.00;93547.44;5010865;28;20053;-84
2022/04/29 00:47:07;;;;;;;11.35;8.48;;;;;;;9.21;100.00;93606.19;5011092;28;20041;-84
2022/04/29 00:49:35;;;;;;;12.48;9.13;;;;;;;9.06;100.00;93576.38;5011299;28;20336;-84
2022/04/29 00:52:06;;;;;;;11.93;8.82;;;;;;;8.89;100.00;93509.28;5011049;28;20499;-83
2022/04/29 00:54:36;;;;;;;11.23;8.18;;;;;;;9.19;100.00;93537.19;5010773;28;20046;-83
2022/04/29 00:57:07;;;;;;;10.40;7.60;;;;;;;9.28;100.00;93555.75;5011273;28;20740;-83
2022/04/29 00:59:39;;;;;;;12.65;9.07;;;;;;;9.65;100.00;93598.25;5011070;28;20045;-83
2022/04/29 01:02:09;;;;;;;12.95;9.30;;;;;;;9.61;100.00;93597.84;5010776;28;20048;-83
2022/04/29 01:04:41;;;;;;;11.98;9.05;;;;;;;9.56;100.00;93598.44;5022395;28;20049;-83
2022/04/29 01:07:10;;;;;;;11.52;8.30;;;;;;;9.30;100.00;93561.47;5004757;28;20052;-83
2022/04/29 01:09:36;;;;;;;12.95;8.85;;;;;;;9.66;100.00;93590.34;5030506;28;20115;-83
2022/04/29 01:12:04;;;;;;;12.27;8.30;;;;;;;9.68;100.00;93590.16;5030639;28;20053;-83
2022/04/29 01:14:32;;;;;;;11.05;8.35;;;;;;;9.49;100.00;93536.06;5030589;28;20045;-83
2022/04/29 01:16:59;;;;;;;10.27;7.85;;;;;;;9.95;99.45;93595.34;5029965;28;20045;-83
2022/04/29 01:19:25;;;;;;;12.57;9.13;;;;;;;9.93;98.20;93561.38;5030150;28;20477;-82
2022/04/29 01:21:52;;;;;;;11.70;8.82;;;;;;;10.17;97.72;93583.09;5030484;28;20099;-83
2022/04/29 01:24:21;;;;;;;12.00;9.25;;;;;;;10.13;97.29;93572.44;5030016;28;20041;-83
2022/04/29 01:26:48;;;;;;;12.13;8.70;;;;;;;10.06;96.88;93553.69;5029988;28;20052;-83
2022/04/29 01:29:16;;;;;;;10.82;8.13;;;;;;;10.31;96.84;93583.13;5029821;28;20043;-82
2022/04/29 01:31:44;;;;;;;14.00;9.63;;;;;;;10.41;96.06;93581.72;5030284;28;20053;-83
2022/04/29 01:34:11;;;;;;;11.43;9.00;;;;;;;10.25;96.12;93551.31;5029804;28;20045;-83
2022/04/29 01:36:37;;;;;;;11.40;8.60;;;;;;;10.38;95.40;93578.75;5030226;28;20141;-83
2022/04/29 01:39:04;;;;;;;12.82;8.23;;;;;;;9.98;95.25;93505.13;5030477;28;20048;-83
2022/04/29 01:41:34;;;;;;;13.02;8.90;;;;;;;10.42;94.80;93570.47;5030234;28;20374;-83
2022/04/29 01:44:01;;;;;;;13.18;9.50;;;;;;;10.46;94.78;93583.72;5029674;28;20060;-83
2022/04/29 01:46:28;;;;;;;14.10;8.90;;;;;;;10.53;94.46;93588.84;5030030;28;20041;-83
2022/04/29 01:48:55;;;;;;;14.38;8.57;;;;;;;10.52;94.59;93590.63;5029777;28;20168;-83
2022/04/29 01:51:21;;;;;;;11.13;8.48;;;;;;;10.38;94.67;93576.97;5030000;28;20037;-83
2022/04/29 01:53:53;;;;;;;12.02;8.32;;;;;;;10.32;95.32;93580.34;5029619;28;20412;-83
2022/04/29 01:56:20;;;;;;;12.32;8.35;;;;;;;10.32;95.35;93579.56;5027006;28;20480;-83
2022/04/29 01:58:49;;;;;;;9.38;7.38;;;;;;;10.18;95.71;93576.22;5027419;28;20049;-83
2022/04/29 02:01:15;;;;;;;10.57;7.65;;;;;;;10.15;96.57;93590.22;5028760;28;20049;-83
2022/04/29 02:03:42;;;;;;;13.25;8.23;;;;;;;10.11;96.96;93582.13;5029732;28;20389;-82
2022/04/29 02:06:09;;;;;;;10.43;7.53;;;;;;;9.99;97.59;93579.34;5029774;28;20443;-83
2022/04/29 02:08:37;;;;;;;10.70;7.80;;;;;;;9.92;97.59;93578.56;5029646;28;20048;-82
2022/04/29 02:11:04;;;;;;;10.55;8.00;;;;;;;10.03;97.26;93585.69;5029624;28;20042;-82
2022/04/29 02:13:31;;;;;;;11.68;8.15;;;;;;;9.73;97.03;93559.59;5029330;28;20057;-82
2022/04/29 02:16:00;;;;;;;11.30;7.68;;;;;;;10.10;96.86;93590.81;5029434;28;20049;-83
2022/04/29 02:18:26;;;;;;;10.00;7.47;;;;;;;10.15;96.78;93592.78;5029650;28;20045;-83
2022/04/29 02:20:53;;;;;;;9.57;7.78;;;;;;;10.16;96.71;93600.31;5029390;28;20052;-82
2022/04/29 02:23:20;;;;;;;10.65;7.78;;;;;;;10.08;95.95;93585.09;5029340;28;20060;-82
2022/04/29 02:25:47;;;;;;;13.15;8.38;;;;;;;10.01;97.46;93599.69;5029522;28;20045;-83
2022/04/29 02:28:14;;;;;;;12.07;7.82;;;;;;;9.71;98.34;93584.63;5029325;28;20061;-83
2022/04/29 02:30:41;;;;;;;13.40;8.25;;;;;;;9.19;99.56;93518.44;5029828;28;20052;-83
2022/04/29 02:33:09;;;;;;;14.38;8.57;;;;;;;9.50;100.00;93604.34;5030909;28;20092;-83
2022/04/29 02:35:36;;;;;;;10.55;7.63;;;;;;;9.59;100.00;93598.03;5030503;28;20107;-83
2022/04/29 02:38:03;;;;;;;12.07;8.52;;;;;;;9.58;100.00;93603.38;5029332;28;20519;-83
2022/04/29 02:40:30;;;;;;;16.20;8.27;;;;;;;9.45;100.00;93583.59;5029259;28;20045;-83
2022/04/29 02:42:57;;;;;;;12.52;8.90;;;;;;;9.18;100.00;93558.69;5029294;28;20055;-82
2022/04/29 02:45:24;;;;;;;13.75;8.60;;;;;;;9.03;100.00;93547.78;5029523;28;20049;-82
2022/04/29 02:47:51;;;;;;;11.40;8.18;;;;;;;9.04;100.00;93590.34;5029406;28;20041;-82
2022/04/29 02:50:19;;;;;;;14.05;8.75;;;;;;;8.96;100.00;93591.31;5029262;28;20054;-82
2022/04/29 02:52:46;;;;;;;13.75;10.05;;;;;;;8.68;100.00;93556.28;5029548;28;20061;-83
2022/04/29 02:55:13;;;;;;;14.82;10.13;;;;;;;8.93;100.00;93586.53;5027264;28;20085;-82
2022/04/29 02:57:40;;;;;;;15.25;9.80;;;;;;;8.74;100.00;93577.81;5026756;28;20056;-82
2022/04/29 03:00:08;;;;;;;14.48;10.40;;;;;;;8.84;100.00;93590.25;5027649;28;20069;-83
2022/04/29 03:02:35;;;;;;;14.27;10.00;;;;;;;8.76;100.00;93566.38;5028853;28;20046;-83
2022/04/29 03:05:02;;;;;;;14.23;10.00;;;;;;;8.51;100.00;93528.41;5029244;28;20065;-83
2022/04/29 03:07:30;;;;;;;14.75;10.27;;;;;;;8.31;100.00;93505.25;5030831;28;20453;-82
2022/04/29 03:09:57;;;;;;;13.40;9.38;;;;;;;8.95;100.00;93589.72;5032831;28;20045;-82
2022/04/29 03:12:24;;;;;;;14.77;9.70;;;;;;;8.89;100.00;93578.44;5032447;28;20041;-82
2022/04/29 03:14:51;;;;;;;14.60;10.90;;;;;;;8.71;100.00;93593.53;5032302;28;20097;-82
2022/04/29 03:19:59;;;;;;;14.95;10.35;;;;;;;8.69;100.00;93575.78;5031893;28;20077;-82
2022/04/29 03:22:26;;;;;;;15.00;10.82;;;;;;;8.91;100.00;93606.44;5032432;28;20081;-83
2022/04/29 03:24:54;;;;;;;13.02;9.55;;;;;;;8.88;100.00;93601.72;5032343;28;20060;-81
2022/04/29 03:27:21;;;;;;;13.82;9.85;;;;;;;9.02;100.00;93605.13;5032061;28;20041;-80
2022/04/29 03:29:48;;;;;;;15.85;10.60;;;;;;;9.19;100.00;93608.97;5032580;28;20049;-81
2022/04/29 03:32:15;;;;;;;14.25;10.38;;;;;;;9.37;100.00;93610.22;5031999;28;20511;-82
2022/04/29 03:34:42;;;;;;;14.88;10.38;;;;;;;9.39;100.00;93595.41;5032363;28;20064;-82
2022/04/29 03:37:09;;;;;;;15.73;10.20;;;;;;;9.51;100.00;93602.53;5032357;28;20084;-82
2022/04/29 03:39:35;;;;;;;14.95;10.25;;;;;;;9.74;100.00;93609.91;5032010;28;20052;-81
2022/04/29 03:42:04;;;;;;;14.38;9.43;;;;;;;9.85;100.00;93616.25;5032544;28;20045;-80
2022/04/29 03:44:31;;;;;;;13.68;9.45;;;;;;;9.88;100.00;93614.09;5032367;28;20048;-82
2022/04/29 03:46:58;;;;;;;15.25;10.65;;;;;;;9.88;100.00;93608.16;5031876;28;20037;-82
2022/04/29 03:49:37;;;;;;;13.55;10.02;;;;;;;9.80;100.00;93618.59;5032199;28;20053;-82
2022/04/29 03:52:05;;;;;;;13.50;9.35;;;;;;;9.58;100.00;93611.06;5031661;28;20073;-83
2022/04/29 03:54:32;;;;;;;12.68;9.18;;;;;;;9.58;100.00;93613.63;5042009;28;20084;-82
2022/04/29 03:56:59;;;;;;;14.48;9.50;;;;;;;9.57;100.00;93612.81;5051956;28;20045;-82
2022/04/29 03:59:27;;;;;;;15.65;10.15;;;;;;;9.35;100.00;93582.19;5051937;28;20052;-82
2022/04/29 04:01:54;;;;;;;15.02;10.65;;;;;;;9.40;100.00;93596.22;5051957;28;20045;-82
2022/04/29 04:04:21;;;;;;;15.77;10.52;;;;;;;9.46;100.00;93598.81;5041838;28;20052;-82
2022/04/29 04:06:51;;;;;;;15.40;9.68;;;;;;;9.41;100.00;93596.03;5031541;28;20041;-82
2022/04/29 04:09:18;;;;;;;15.38;10.45;;;;;;;9.52;100.00;93610.06;5031789;28;20542;-83
2022/04/29 04:11:45;;;;;;;13.88;9.57;;;;;;;9.61;100.00;93608.91;5031570;28;20053;-83
2022/04/29 04:14:12;;;;;;;12.35;9.00;;;;;;;9.74;100.00;93617.59;5031677;28;20045;-82
2022/04/29 04:16:40;;;;;;;14.48;9.95;;;;;;;9.80;100.00;93619.41;5031685;28;20048;-82
2022/04/29 04:19:08;;;;;;;12.45;8.68;;;;;;;9.77;100.00;93614.66;5031122;28;20049;-82
2022/04/29 04:21:35;;;;;;;13.77;9.50;;;;;;;9.62;100.00;93584.84;5031554;28;20049;-82
2022/04/29 04:24:02;;;;;;;15.85;9.43;;;;;;;9.91;100.00;93612.91;5031900;28;20041;-82
2022/04/29 04:26:29;;;;;;;13.75;9.50;;;;;;;9.95;100.00;93619.22;5031909;28;20045;-82
2022/04/29 04:28:57;;;;;;;14.77;9.82;;;;;;;9.93;100.00;93605.00;5031721;28;20053;-82
2022/04/29 04:31:24;;;;;;;14.75;9.88;;;;;;;9.88;100.00;93611.53;5032123;28;20048;-84
2022/04/29 04:33:52;;;;;;;15.02;9.38;;;;;;;9.76;100.00;93624.13;5031784;28;20045;-83
2022/04/29 04:36:19;;;;;;;15.07;10.75;;;;;;;9.58;100.00;93599.00;5031266;28;20121;-83
2022/04/29 04:38:47;;;;;;;14.52;10.02;;;;;;;9.58;100.00;93606.72;5030191;28;20046;-83
2022/04/29 04:41:15;;;;;;;16.48;11.00;;;;;;;9.65;100.00;93604.16;5029643;28;20050;-83
2022/04/29 04:43:42;;;;;;;16.85;9.70;;;;;;;9.83;100.00;93613.09;5030625;28;20068;-83
2022/04/29 04:46:09;;;;;;;12.45;8.60;;;;;;;9.58;100.00;93609.28;5031688;28;20052;-83
2022/04/29 04:48:38;;;;;;;13.20;9.30;;;;;;;9.11;100.00;93531.44;5028734;28;20397;-83
2022/04/29 04:51:07;;;;;;;12.70;9.00;;;;;;;8.99;100.00;93544.81;5028961;28;20088;-83
2022/04/29 04:53:33;;;;;;;12.70;9.85;;;;;;;9.62;100.00;93613.03;5031024;28;20405;-83
2022/04/29 04:56:00;;;;;;;15.07;10.10;;;;;;;9.38;100.00;93577.66;5030749;28;20049;-83
2022/04/29 04:58:29;;;;;;;14.65;9.80;;;;;;;9.62;100.00;93602.78;5030294;28;20508;-83
2022/04/29 05:00:56;;;;;;;14.50;10.23;;;;;;;9.45;100.00;93583.59;5030416;28;20578;-84
2022/04/29 05:03:23;;;;;;;14.95;10.65;;;;;;;9.66;100.00;93581.88;5027850;28;20037;-84
2022/04/29 05:05:50;;;;;;;14.63;10.18;;;;;;;9.58;100.00;93586.19;5030616;28;20037;-84
2022/04/29 05:08:18;;;;;;;14.43;9.80;;;;;;;9.81;100.00;93603.00;5027911;28;20374;-83
2022/04/29 05:10:49;;;;;;;15.43;9.25;;;;;;;10.08;100.00;93604.81;5030808;28;20421;-83
2022/04/29 05:13:15;;;;;;;13.38;9.80;;;;;;;10.32;100.00;93618.84;5030369;28;20048;-82
2022/04/29 05:15:43;;;;;;;16.17;10.15;;;;;;;10.49;100.00;93619.28;5030303;28;20038;-82
2022/04/29 05:18:10;;;;;;;13.40;9.60;;;;;;;10.68;100.00;93627.97;5030698;28;20068;-82
2022/04/29 05:20:37;;;;;;;13.27;9.30;;;;;;;10.71;100.00;93625.97;5028230;28;20170;-83
2022/04/29 05:23:03;;;;;;;13.20;9.48;;;;;;;10.79;100.00;93618.06;5031699;28;20045;-83
2022/04/29 05:25:32;;;;;;;15.30;9.93;;;;;;;10.88;100.00;93618.66;5031904;28;20060;-83
2022/04/29 05:27:59;;;;;;;12.43;9.32;;;;;;;11.04;100.00;93615.66;5030242;28;20045;-83
2022/04/29 05:30:27;;;;;;;12.50;8.93;;;;;;;10.37;100.00;93608.00;5028886;28;20128;-84
2022/04/29 05:32:54;;;;;;;15.05;9.43;;;;;;;9.71;100.00;93521.31;5029513;28;20052;-84
2022/04/29 05:35:22;;;;;;;15.15;9.90;;;;;;;10.64;100.00;93619.06;5030081;28;20057;-84
2022/04/29 05:37:49;;;;;;;16.88;9.60;;;;;;;10.62;100.00;93595.38;5030374;28;20077;-83
2022/04/29 05:43:02;;;;;;;16.23;9.93;;;;;;;11.26;100.00;93624.88;5029551;28;20162;-82
2022/04/29 05:45:29;;;;;;;14.35;9.63;;;;;;;11.39;100.00;93624.03;5030218;28;20473;-83
2022/04/29 05:47:55;;;;;;;14.48;9.85;;;;;;;11.54;99.07;93616.03;5029579;28;20045;-83
2022/04/29 05:50:22;;;;;;;14.38;9.50;;;;;;;11.29;98.65;93591.81;5029830;28;20084;-83
2022/04/29 05:52:49;;;;;;;14.88;9.65;;;;;;;11.54;98.16;93631.47;5029471;28;20045;-83
2022/04/29 05:55:16;;;;;;;13.25;8.63;;;;;;;11.28;99.87;93599.72;5029697;28;20045;-84
2022/04/29 05:57:43;;;;;;;12.88;9.00;;;;;;;11.05;100.00;93586.38;5029678;28;20049;-83
2022/04/29 06:00:13;;;;;;;16.58;10.27;;;;;;;11.28;100.00;93615.16;5029815;28;20132;-83
2022/04/29 06:02:40;;;;;;;13.50;9.38;;;;;;;11.46;99.21;93620.44;5029591;28;20045;-83
2022/04/29 06:05:08;;;;;;;13.98;9.48;;;;;;;11.74;98.02;93631.38;5029638;28;20045;-83
2022/04/29 06:07:35;;;;;;;13.00;8.80;;;;;;;11.95;97.18;93637.22;5029349;28;20485;-83
2022/04/29 06:10:02;;;;;;;12.68;9.43;;;;;;;11.82;97.98;93638.88;5029622;28;20049;-83
2022/04/29 06:12:29;;;;;;;14.35;9.70;;;;;;;11.69;99.10;93641.50;5029375;28;20049;-83
2022/04/29 06:14:56;;;;;;;12.38;8.63;;;;;;;11.88;97.56;93621.81;5029222;28;20827;-83
2022/04/29 06:17:24;;;;;;;12.93;8.57;;;;;;;12.02;95.43;93613.00;5029418;28;20052;-83
2022/04/29 06:19:51;;;;;;;9.38;7.25;;;;;;;12.14;94.20;93641.47;5029473;28;20041;-84
2022/04/29 06:22:18;;;;;;;11.68;8.00;;;;;;;12.10;94.29;93632.59;5029009;28;20046;-83
2022/04/29 06:24:45;;;;;;;11.45;8.35;;;;;;;12.11;94.81;93649.63;5029286;28;20498;-84
2022/04/29 06:27:12;;;;;;;12.60;8.20;;;;;;;11.84;93.93;93584.59;5029613;28;20045;-83
2022/04/29 06:29:38;;;;;;;12.18;7.82;;;;;;;12.07;94.79;93642.53;5028950;28;20516;-83
2022/04/29 06:32:06;;;;;;;11.48;7.70;;;;;;;11.66;99.18;93632.41;5029667;28;20054;-84
2022/04/29 06:34:34;;;;;;;11.68;8.35;;;;;;;11.46;100.00;93632.50;5029391;28;20041;-84
2022/04/29 06:37:01;;;;;;;12.05;7.88;;;;;;;11.39;99.52;93624.81;5029479;28;20080;-83
2022/04/29 06:39:28;;;;;;;11.40;8.07;;;;;;;11.13;99.67;93576.84;5029203;28;20056;-84
2022/04/29 06:41:55;;;;;;;9.98;7.40;;;;;;;11.18;98.98;93595.81;5032132;28;20052;-83
2022/04/29 06:44:22;;;;;;;10.15;8.55;;;;;;;11.38;99.94;93630.94;5033096;28;20418;-84
2022/04/29 06:46:50;;;;;;;8.60;6.55;;;;;;;11.36;95.77;93618.28;5033060;28;20053;-84
2022/04/29 06:49:17;;;;;;;9.68;6.68;;;;;;;11.60;95.03;93592.06;5032939;28;20152;-85
2022/04/29 06:51:45;;;;;;;8.77;6.78;;;;;;;11.58;92.49;93627.50;5033180;28;20049;-84
2022/04/29 06:54:12;;;;;;;8.35;6.28;;;;;;;11.68;92.75;93601.34;5032868;28;20033;-84
2022/04/29 06:56:39;;;;;;;8.43;6.32;;;;;;;11.60;93.53;93622.94;5032454;28;20065;-84
2022/04/29 06:59:05;;;;;;;8.13;6.20;;;;;;;11.89;91.62;93638.81;5033134;28;20079;-83
2022/04/29 07:01:33;;;;;;;8.90;6.80;;;;;;;11.82;94.47;93614.91;5033277;28;20052;-84
2022/04/29 07:04:00;;;;;;;9.98;6.75;;;;;;;12.01;92.28;93634.63;5032956;28;20116;-84
2022/04/29 07:06:27;;;;;;;9.93;6.90;;;;;;;12.08;92.22;93595.19;5032727;28;20045;-84
2022/04/29 07:08:55;;;;;;;7.80;6.03;;;;;;;12.74;88.41;93642.03;5032903;28;20053;-83
2022/04/29 07:11:22;;;;;;;8.32;6.15;;;;;;;12.24;88.77;93640.22;5032803;28;20045;-84
2022/04/29 07:13:51;;;;;;;8.27;5.93;;;;;;;12.14;90.50;93628.59;5032950;28;20129;-83
2022/04/29 07:16:18;;;;;;;7.88;5.85;;;;;;;11.99;88.72;93617.78;5032322;28;20049;-82
2022/04/29 07:18:45;;;;;;;8.13;6.00;;;;;;;12.19;88.73;93614.31;5032639;28;20049;-83
2022/04/29 07:21:12;;;;;;;8.40;6.22;;;;;;;12.25;88.04;93631.50;5032496;28;20095;-83
2022/04/29 07:23:39;;;;;;;8.52;6.32;;;;;;;12.49;88.00;93634.31;5032502;28;20049;-82
2022/04/29 07:26:08;;;;;;;8.00;6.15;;;;;;;12.16;88.85;93634.34;5032044;28;20049;-82
2022/04/29 07:28:35;;;;;;;7.97;6.35;;;;;;;12.40;88.66;93623.47;5032448;28;20041;-82
2022/04/29 07:31:02;;;;;;;8.90;6.95;;;;;;;11.74;88.23;93603.06;5032723;28;20052;-82
2022/04/29 07:33:28;;;;;;;8.60;5.63;;;;;;;12.27;89.71;93632.88;5032250;28;20516;-83
2022/04/29 07:41:45;;;;;;;8.00;5.70;;;;;;;12.50;87.89;93617.84;5009903;28;20045;-84
2022/04/29 07:44:12;;;;;;;12.52;7.15;;;;;;;12.56;88.78;93643.53;5027931;28;20435;-83
2022/04/29 07:46:39;;;;;;;8.10;6.15;;;;;;;12.75;86.56;93640.22;5031997;28;20073;-83
2022/04/29 07:49:07;;;;;;;9.40;5.95;;;;;;;13.17;85.27;93640.44;5032111;28;20057;-82
2022/04/29 07:51:33;;;;;;;9.63;6.07;;;;;;;13.16;83.69;93597.59;5032069;28;20049;-83
2022/04/29 07:54:00;;;;;;;7.38;5.40;;;;;;;13.39;82.31;93610.81;5031202;28;20377;-84
2022/04/29 07:56:27;;;;;;;8.25;5.80;;;;;;;13.06;82.58;93646.28;5031973;28;20060;-83
2022/04/29 07:58:57;;;;;;;8.73;5.53;;;;;;;11.87;84.25;93530.94;5032040;28;20988;-84
2022/04/29 08:01:25;;;;;;;7.68;5.25;;;;;;;12.67;84.63;93641.28;5032435;28;20404;-83
2022/04/29 08:03:52;;;;;;;9.43;6.32;;;;;;;12.61;84.19;93583.66;5032132;28;20564;-83
2022/04/29 08:06:20;;;;;;;9.43;7.07;;;;;;;12.80;84.92;93630.06;5032024;28;20045;-83
2022/04/29 08:08:47;;;;;;;11.90;8.52;;;;;;;12.67;85.33;93636.13;5032073;28;20119;-83
2022/04/29 08:11:14;;;;;;;8.65;6.50;;;;;;;12.13;85.47;93629.59;5029645;28;20057;-83
2022/04/29 08:13:44;;;;;;;8.75;6.43;;;;;;;12.24;85.51;93622.19;5029922;28;20132;-82
2022/04/29 08:16:12;;;;;;;8.00;5.50;;;;;;;12.62;84.99;93636.78;5031172;28;20112;-82
2022/04/29 08:18:40;;;;;;;7.53;5.40;;;;;;;12.80;82.33;93627.50;5031283;28;20041;-82
2022/04/29 08:21:08;;;;;;;7.40;5.40;;;;;;;13.02;81.13;93603.88;5031217;28;20140;-83
2022/04/29 08:23:35;;;;;;;6.85;4.78;;;;;;;13.45;78.78;93633.16;5031257;28;20504;-83
2022/04/29 08:26:02;;;;;;;7.53;4.63;;;;;;;13.25;76.88;93587.75;5031243;28;20068;-83
2022/04/29 08:28:29;;;;;;;8.45;5.32;;;;;;;13.87;77.03;93617.00;5031144;28;20052;-82
2022/04/29 08:30:56;;;;;;;7.07;4.70;;;;;;;13.70;74.64;93591.00;5030934;28;20168;-83
2022/04/29 08:33:26;;;;;;;6.32;4.32;;;;;;;14.18;74.98;93628.09;5031334;28;20045;-83
2022/04/29 08:35:53;;;;;;;8.43;4.50;;;;;;;13.87;76.31;93606.66;5030859;28;20045;-82
2022/04/29 08:38:20;;;;;;;7.43;5.30;;;;;;;13.99;76.85;93627.38;5031258;28;20056;-83
2022/04/29 08:40:47;;;;;;;7.30;5.80;;;;;;;14.29;77.80;93626.53;5031146;28;20052;-82
2022/04/29 08:43:17;;;;;;;7.10;4.88;;;;;;;14.64;75.31;93625.00;5031218;28;20115;-83
2022/04/29 08:45:44;;;;;;;6.03;4.20;;;;;;;14.61;69.35;93607.34;5030907;28;20056;-83
2022/04/29 08:48:12;;;;;;;7.55;4.85;;;;;;;15.48;70.95;93610.97;5030507;28;20052;-82
2022/04/29 08:50:40;;;;;;;5.95;3.92;;;;;;;14.38;70.72;93594.19;5030896;28;20142;-83
2022/04/29 08:53:07;;;;;;;7.53;4.80;;;;;;;14.24;72.94;93587.66;5030615;28;20044;-83
2022/04/29 09:01:05;;;;;;;7.30;4.30;;;;;;;14.44;73.32;93613.16;5030468;28;20098;-83
2022/04/29 09:03:32;;;;;;;6.25;4.65;;;;;;;14.68;72.85;93605.44;5030699;28;20038;-84
2022/04/29 09:06:00;;;;;;;8.13;5.10;;;;;;;14.78;71.35;93605.72;5030366;28;20049;-84
2022/04/29 09:08:29;;;;;;;7.20;4.97;;;;;;;14.85;72.42;93581.53;5025952;28;20068;-83
2022/04/29 09:10:58;;;;;;;6.93;5.05;;;;;;;15.22;69.83;93597.53;5029759;28;20049;-83
2022/04/29 09:13:26;;;;;;;6.82;4.75;;;;;;;15.07;68.95;93561.00;5030544;28;20076;-84
2022/04/29 09:15:57;;;;;;;6.68;4.30;;;;;;;15.60;68.28;93612.75;5030471;28;20048;-83
2022/04/29 09:18:34;;;;;;;6.03;4.30;;;;;;;15.23;66.71;93621.63;5030255;28;20033;-84
2022/04/29 09:21:07;;;;;;;10.18;6.28;;;;;;;13.84;71.37;93596.78;5030235;28;20080;-83
2022/04/29 09:23:36;;;;;;;7.53;5.43;;;;;;;13.71;74.75;93595.94;5030489;28;20071;-83
2022/04/29 09:26:05;;;;;;;7.95;4.85;;;;;;;14.41;73.20;93573.06;5030493;28;20392;-83
2022/04/29 09:28:33;;;;;;;6.43;4.63;;;;;;;14.62;70.36;93614.88;5029951;28;20041;-84
2022/04/29 09:31:01;;;;;;;6.50;4.72;;;;;;;14.47;73.67;93599.81;5030168;28;20370;-83
2022/04/29 09:33:29;;;;;;;8.43;5.72;;;;;;;14.67;67.55;93612.41;5029884;28;20048;-83
2022/04/29 09:35:57;;;;;;;6.55;4.32;;;;;;;13.96;69.64;93573.56;5030005;28;20041;-83
2022/04/29 09:41:10;;;;;;;;;;;;;;;15.06;68.69;93599.03;5030305;28;20052;-82
2022/04/29 09:43:40;;;;;;;9.32;5.15;;;;;;;15.31;67.48;93592.00;5029902;28;19921;-81
2022/04/29 09:46:15;;;;;;;14.70;7.78;;;;;;;15.42;68.07;93570.47;5029739;28;20400;-83
2022/04/29 09:48:58;;;;;;;6.72;4.60;;;;;;;15.85;62.86;93601.25;5029580;28;20044;-83
2022/04/29 09:51:44;;;;;;;7.32;3.75;;;;;;;15.93;63.24;93550.91;5029710;28;20477;-82
2022/04/29 09:54:16;;;;;;;8.63;4.75;;;;;;;16.32;60.98;93595.06;5029950;28;20038;-82
2022/04/29 09:56:44;;;;;;;9.32;4.43;;;;;;;16.02;59.94;93590.97;5029672;28;20060;-82
2022/04/29 09:59:11;;;;;;;11.85;6.70;;;;;;;15.62;61.93;93598.56;5029675;28;20091;-82
2022/04/29 10:01:38;;;;;;;7.47;4.88;;;;;;;16.24;61.76;93587.69;5029454;28;20041;-81
2022/04/29 10:04:05;;;;;;;7.63;4.68;;;;;;;15.73;61.46;93590.94;5029821;28;20131;-82
2022/04/29 10:06:34;;;;;;;5.85;4.20;;;;;;;15.93;64.37;93559.47;5029468;28;20485;-81
2022/04/29 10:09:02;;;;;;;7.40;4.78;;;;;;;16.23;62.56;93565.38;5029594;28;20046;-82
2022/04/29 10:11:34;;;;;;;6.03;4.55;;;;;;;16.60;63.72;93577.03;5029756;28;20046;-83
2022/04/29 10:14:04;;;;;;;6.60;4.30;;;;;;;16.26;61.60;93538.97;5029192;28;20509;-82
2022/04/29 10:16:34;;;;;;;6.53;4.65;;;;;;;16.67;61.46;93556.94;5029172;28;20099;-83
2022/04/29 10:21:52;;;;;;;6.88;4.50;;;;;;;17.25;60.00;93568.84;5029525;28;20057;-81
2022/04/29 10:24:18;;;;;;;5.68;4.35;;;;;;;17.49;58.63;93569.34;5029329;28;20539;-82
2022/04/29 10:26:49;;;;;;;6.43;4.00;;;;;;;17.21;57.92;93566.72;5029425;28;20500;-83
2022/04/29 10:29:16;;;;;;;5.35;4.10;;;;;;;16.85;59.18;93570.66;5029524;28;20085;-81
2022/04/29 10:31:43;;;;;;;6.65;4.13;;;;;;;17.05;57.88;93564.97;5029798;28;20125;-82
2022/04/29 10:34:29;;;;;;;8.02;4.40;;;;;;;17.57;57.93;93570.72;5029629;28;20434;-81
2022/04/29 10:36:57;;;;;;;6.28;4.10;;;;;;;17.75;57.75;93557.41;5029220;28;20137;-81
2022/04/29 10:39:24;;;;;;;6.68;3.97;;;;;;;18.12;56.13;93563.72;5029521;28;20045;-81
2022/04/29 10:42:06;;;;;;;6.38;4.38;;;;;;;15.79;59.76;93533.06;5029324;28;20041;-82
2022/04/29 10:44:33;;;;;;;6.03;4.30;;;;;;;16.22;64.60;93558.63;5027217;28;20068;-83
2022/04/29 10:47:35;;;;;;;7.40;4.68;;;;;;;15.79;61.46;93543.41;5026326;28;20041;-83
2022/04/29 10:50:37;;;;;;;6.00;4.25;;;;;;;15.88;61.33;93556.78;5028847;28;20045;-83
2022/04/29 10:53:05;;;;;;;6.88;4.72;;;;;;;15.84;62.88;93543.47;5029151;28;20049;-84
2022/04/29 10:55:32;;;;;;;7.40;4.97;;;;;;;15.86;60.43;93548.44;5029250;28;20052;-82
2022/04/29 10:58:04;;;;;;;7.78;5.00;;;;;;;15.99;62.41;93545.59;5028555;28;20049;-83
2022/04/29 11:00:33;;;;;;;6.18;4.30;;;;;;;15.69;61.81;93525.13;5027874;28;20049;-82
2022/04/29 11:03:33;;;;;;;6.65;4.40;;;;;;;15.91;64.13;93532.97;5028512;28;20144;-82
2022/04/29 11:06:10;;;;;;;9.00;4.68;;;;;;;16.64;60.94;93534.84;5027066;28;20041;-82
2022/04/29 11:08:37;;;;;;;6.38;4.10;;;;;;;16.72;57.72;93507.72;5028708;28;20061;-83
2022/04/29 11:11:04;;;;;;;7.15;4.85;;;;;;;16.93;58.68;93489.78;5028821;28;20060;-82
2022/04/29 11:13:36;;;;;;;7.20;4.63;;;;;;;17.13;57.38;93524.81;5029026;28;20558;-82
2022/04/29 11:16:11;;;;;;;5.35;3.50;;;;;;;17.43;56.13;93510.59;5028845;28;20072;-82
2022/04/29 11:18:38;;;;;;;5.95;4.35;;;;;;;17.32;58.85;93499.34;5028838;28;20053;-84
2022/04/29 11:26:43;;;;;;;6.00;3.92;;;;;;;17.72;57.17;93528.53;5028520;28;20052;-83
2022/04/29 11:29:12;;;;;;;6.60;4.05;;;;;;;18.17;55.11;93518.78;5031852;28;20424;-84
2022/04/29 11:31:39;;;;;;;7.10;3.92;;;;;;;18.05;54.54;93505.91;5032403;28;20049;-82
2022/04/29 11:34:07;;;;;;;8.07;4.93;;;;;;;18.26;54.91;93514.69;5031977;28;20327;-83
2022/04/29 11:36:34;;;;;;;8.65;4.03;;;;;;;18.79;52.58;93506.13;5032212;28;20128;-83
2022/04/29 11:39:01;;;;;;;6.05;4.47;;;;;;;18.41;53.44;93506.22;5032652;28;20041;-82
2022/04/29 11:41:29;;;;;;;5.57;4.15;;;;;;;18.88;53.15;93488.22;5031794;28;20402;-82
2022/04/29 11:43:56;;;;;;;6.13;4.13;;;;;;;18.66;53.87;93506.59;5032173;28;20050;-82
2022/04/29 11:46:24;;;;;;;6.45;4.47;;;;;;;18.93;53.40;93500.47;5031941;28;20041;-82
2022/04/29 11:48:53;;;;;;;6.32;3.90;;;;;;;18.90;52.74;93493.16;5031693;28;20890;-82
2022/04/29 11:51:20;;;;;;;7.32;4.32;;;;;;;18.37;52.12;93492.13;5031734;28;20481;-83
2022/04/29 11:53:56;;;;;;;6.50;4.47;;;;;;;18.69;53.05;93493.88;5031884;28;20053;-82
2022/04/29 11:56:31;;;;;;;7.25;4.28;;;;;;;18.91;51.43;93471.31;5031876;28;20048;-82
2022/04/29 11:58:57;;;;;;;9.63;3.97;;;;;;;17.98;51.16;93453.38;5031624;28;20045;-83